createdAt,value
2018-09-22T00:00:09.038Z,10.23
2018-09-22T00:02:37.470Z,8.23
2018-09-22T00:05:06.038Z,13.27
2018-09-22T00:07:34.510Z,12.53
2018-09-22T00:10:02.959Z,15.13
2018-09-22T00:12:31.428Z,13.70
2018-09-22T00:14:59.913Z,9.90
2018-09-22T00:17:28.436Z,15.93
2018-09-22T00:19:56.937Z,11.57
2018-09-22T00:22:25.388Z,16.77
2018-09-22T00:24:53.851Z,17.73
2018-09-22T00:27:22.376Z,13.77
2018-09-22T00:29:50.736Z,13.87
2018-09-22T00:32:19.204Z,14.87
2018-09-22T00:34:47.733Z,15.30
2018-09-22T00:37:16.181Z,14.50
2018-09-22T00:39:44.732Z,14.40
2018-09-22T00:42:13.189Z,16.57
2018-09-22T00:44:41.685Z,14.10
2018-09-22T00:47:10.127Z,11.27
2018-09-22T00:49:38.604Z,19.00
2018-09-22T00:52:07.064Z,14.83
2018-09-22T00:54:35.752Z,13.83
2018-09-22T00:57:04.176Z,12.77
2018-09-22T00:59:32.682Z,10.50
2018-09-22T01:02:01.128Z,11.53
2018-09-22T01:04:29.581Z,14.80
2018-09-22T01:06:58.084Z,11.90
2018-09-22T01:09:26.520Z,11.80
2018-09-22T01:11:54.976Z,10.30
2018-09-22T01:14:23.469Z,18.03
2018-09-22T01:16:51.944Z,13.13
2018-09-22T01:19:20.372Z,15.27
2018-09-22T01:21:48.817Z,16.40
2018-09-22T01:24:17.278Z,12.27
2018-09-22T01:26:45.775Z,16.20
2018-09-22T01:29:15.478Z,17.20
2018-09-22T01:31:44.718Z,16.60
2018-09-22T01:34:13.266Z,14.17
2018-09-22T01:36:42.525Z,16.00
2018-09-22T01:39:12.028Z,17.13
2018-09-22T01:41:41.207Z,13.60
2018-09-22T01:44:09.755Z,14.60
2018-09-22T01:46:38.269Z,18.60
2018-09-22T01:49:06.696Z,11.13
2018-09-22T01:51:35.211Z,15.20
2018-09-22T01:54:03.739Z,11.83
2018-09-22T01:56:32.194Z,10.87
2018-09-22T01:59:00.666Z,19.23
2018-09-22T02:01:29.120Z,12.20
2018-09-22T02:03:57.558Z,20.03
2018-09-22T02:06:26.084Z,14.60
2018-09-22T02:08:54.593Z,10.47
2018-09-22T02:11:23.097Z,17.37
2018-09-22T02:13:51.557Z,11.87
2018-09-22T02:16:20.023Z,17.77
2018-09-22T02:18:48.513Z,16.17
2018-09-22T02:21:16.981Z,10.30
2018-09-22T02:23:45.485Z,17.97
2018-09-22T02:26:13.951Z,16.00
2018-09-22T02:28:42.399Z,13.27
2018-09-22T02:31:10.908Z,17.00
2018-09-22T02:33:39.424Z,17.43
2018-09-22T02:36:07.971Z,11.67
2018-09-22T02:38:36.638Z,16.90
2018-09-22T02:41:05.081Z,15.13
2018-09-22T02:43:33.562Z,13.83
2018-09-22T02:46:02.024Z,14.50
2018-09-22T02:48:30.518Z,14.43
2018-09-22T02:50:58.952Z,11.53
2018-09-22T02:53:27.510Z,15.43
2018-09-22T02:55:55.992Z,12.77
2018-09-22T02:58:24.437Z,9.77
2018-09-22T03:00:52.966Z,14.23
2018-09-22T03:03:21.465Z,15.47
2018-09-22T03:05:49.928Z,13.70
2018-09-22T03:08:18.435Z,22.37
2018-09-22T03:10:46.934Z,17.03
2018-09-22T03:13:15.775Z,18.20
2018-09-22T03:15:44.262Z,21.17
2018-09-22T03:18:12.850Z,19.97
2018-09-22T03:20:41.354Z,15.87
2018-09-22T03:23:09.859Z,19.93
2018-09-22T03:25:38.316Z,21.53
2018-09-22T03:28:06.816Z,20.73
2018-09-22T03:30:35.448Z,20.63
2018-09-22T03:33:03.926Z,22.67
2018-09-22T03:35:32.410Z,19.10
2018-09-22T03:38:00.833Z,22.40
2018-09-22T03:40:29.277Z,16.23
2018-09-22T03:42:57.710Z,24.93
2018-09-22T03:45:26.165Z,20.23
2018-09-22T03:47:54.599Z,21.93
2018-09-22T03:50:23.009Z,19.83
2018-09-22T03:52:51.537Z,17.13
2018-09-22T03:55:19.962Z,16.80
2018-09-22T03:57:48.481Z,23.10
2018-09-22T04:00:16.955Z,14.87
2018-09-22T04:02:45.422Z,21.57
2018-09-22T04:05:13.977Z,22.37
2018-09-22T04:07:42.535Z,17.03
2018-09-22T04:10:11.004Z,17.70
2018-09-22T04:12:39.511Z,23.50
2018-09-22T04:15:07.939Z,22.67
2018-09-22T04:17:36.404Z,20.30
2018-09-22T04:20:04.880Z,19.53
2018-09-22T04:22:33.376Z,18.93
2018-09-22T04:25:01.824Z,15.87
2018-09-22T04:27:30.254Z,14.27
2018-09-22T04:29:58.684Z,25.83
2018-09-22T04:32:27.123Z,18.13
2018-09-22T04:34:55.628Z,21.93
2018-09-22T04:37:24.159Z,22.33
2018-09-22T04:39:52.655Z,16.83
2018-09-22T04:42:21.174Z,16.07
2018-09-22T04:44:49.674Z,17.63
2018-09-22T04:47:18.158Z,24.17
2018-09-22T04:49:46.660Z,19.87
2018-09-22T04:52:15.092Z,20.50
2018-09-22T04:54:43.542Z,21.07
2018-09-22T04:57:12.044Z,20.73
2018-09-22T04:59:40.582Z,20.10
2018-09-22T05:02:09.377Z,24.10
2018-09-22T05:04:38.365Z,19.60
2018-09-22T05:07:07.062Z,24.03
2018-09-22T05:09:35.890Z,21.50
2018-09-22T05:12:04.357Z,22.53
2018-09-22T05:14:32.828Z,18.47
2018-09-22T05:17:01.389Z,24.07
2018-09-22T05:19:30.165Z,21.33
2018-09-22T05:21:58.927Z,18.93
2018-09-22T05:24:27.506Z,21.97
2018-09-22T05:26:56.156Z,20.07
2018-09-22T05:29:24.754Z,16.57
2018-09-22T05:31:53.319Z,23.70
2018-09-22T05:34:21.837Z,20.47
2018-09-22T05:36:50.339Z,21.40
2018-09-22T05:39:18.839Z,22.77
2018-09-22T05:41:47.382Z,21.60
2018-09-22T05:44:15.857Z,18.77
2018-09-22T05:46:44.381Z,21.53
2018-09-22T05:49:13.067Z,17.47
2018-09-22T05:51:41.513Z,20.23
2018-09-22T05:54:10.079Z,14.77
2018-09-22T05:56:38.976Z,22.23
2018-09-22T05:59:07.527Z,24.03
2018-09-22T06:01:36.132Z,16.10
2018-09-22T06:04:04.633Z,16.70
2018-09-22T06:06:33.212Z,18.80
2018-09-22T06:09:02.428Z,15.27
2018-09-22T06:11:30.995Z,20.10
2018-09-22T06:13:59.629Z,25.00
2018-09-22T06:16:28.067Z,17.70
2018-09-22T06:18:56.546Z,21.40
2018-09-22T06:21:25.076Z,17.70
2018-09-22T06:23:59.276Z,20.97
2018-09-22T06:26:27.770Z,17.77
2018-09-22T06:28:56.359Z,19.90
2018-09-22T06:31:24.846Z,18.37
2018-09-22T06:33:53.294Z,18.90
2018-09-22T06:36:22.094Z,18.97
2018-09-22T06:38:50.796Z,20.80
2018-09-22T06:41:19.357Z,17.83
2018-09-22T06:43:48.088Z,15.17
2018-09-22T06:46:16.557Z,25.77
2018-09-22T06:48:45.218Z,18.97
2018-09-22T06:51:14.014Z,23.30
2018-09-22T06:53:42.599Z,18.23
2018-09-22T06:56:11.142Z,22.23
2018-09-22T06:58:39.693Z,19.60
2018-09-22T07:01:08.317Z,18.67
2018-09-22T07:03:36.914Z,17.57
2018-09-22T07:06:05.480Z,25.57
2018-09-22T07:08:33.993Z,16.90
2018-09-22T07:11:02.977Z,23.47
2018-09-22T07:13:31.485Z,18.33
2018-09-22T07:16:00.041Z,21.60
2018-09-22T07:18:28.703Z,18.47
2018-09-22T07:21:02.743Z,17.50
2018-09-22T07:23:31.265Z,21.67
2018-09-22T07:25:59.812Z,18.40
2018-09-22T07:28:28.435Z,24.80
2018-09-22T07:30:57.425Z,17.83
2018-09-22T07:33:25.825Z,14.87
2018-09-22T07:35:54.413Z,16.20
2018-09-22T07:38:22.857Z,23.17
2018-09-22T07:40:51.403Z,17.20
2018-09-22T07:43:20.158Z,14.77
2018-09-22T07:45:48.781Z,19.83
2018-09-22T07:48:17.391Z,14.57
2018-09-22T07:50:45.887Z,16.53
2018-09-22T07:53:14.486Z,20.63
2018-09-22T07:55:43.019Z,16.37
2018-09-22T07:58:11.564Z,26.33
2018-09-22T08:00:40.101Z,16.93
2018-09-22T08:03:08.699Z,22.63
2018-09-22T08:05:37.141Z,18.20
2018-09-22T08:08:05.588Z,19.63
2018-09-22T08:10:34.261Z,17.37
2018-09-22T08:13:02.821Z,16.63
2018-09-22T08:15:31.281Z,20.53
2018-09-22T08:17:59.736Z,14.23
2018-09-22T08:20:28.182Z,15.17
2018-09-22T08:22:56.654Z,15.97
2018-09-22T08:25:25.128Z,17.50
2018-09-22T08:27:53.631Z,14.33
2018-09-22T08:30:22.156Z,23.57
2018-09-22T08:32:51.111Z,19.50
2018-09-22T08:35:19.563Z,18.67
2018-09-22T08:37:48.116Z,15.87
2018-09-22T08:40:17.239Z,21.40
2018-09-22T08:42:45.773Z,13.80
2018-09-22T08:45:14.236Z,24.27
2018-09-22T08:47:42.654Z,18.27
2018-09-22T08:50:11.310Z,16.13
2018-09-22T08:52:39.954Z,17.67
2018-09-22T08:55:08.457Z,11.97
2018-09-22T08:57:37.050Z,17.60
2018-09-22T09:00:05.748Z,15.43
2018-09-22T09:02:34.213Z,14.43
2018-09-22T09:05:02.732Z,16.73
2018-09-22T09:07:31.182Z,14.03
2018-09-22T09:09:59.722Z,13.37
2018-09-22T09:12:28.253Z,13.53
2018-09-22T09:14:56.720Z,19.90
2018-09-22T09:17:26.088Z,19.27
2018-09-22T09:19:54.770Z,18.47
2018-09-22T09:22:23.235Z,15.73
2018-09-22T09:24:51.727Z,17.97
2018-09-22T09:27:20.394Z,15.43
2018-09-22T09:29:49.289Z,13.10
2018-09-22T09:32:18.281Z,15.63
2018-09-22T09:34:47.845Z,15.10
2018-09-22T09:37:16.351Z,11.53
2018-09-22T09:39:44.949Z,8.70
2018-09-22T09:42:13.501Z,11.50
2018-09-22T09:44:41.986Z,10.60
2018-09-22T09:47:10.591Z,9.60
2018-09-22T09:49:39.230Z,10.77
2018-09-22T09:52:08.459Z,10.43
2018-09-22T09:54:37.152Z,8.77
2018-09-22T09:57:05.658Z,13.93
2018-09-22T09:59:34.497Z,10.37
2018-09-22T10:02:03.078Z,10.47
2018-09-22T10:04:31.587Z,13.17
2018-09-22T10:07:00.048Z,15.07
2018-09-22T10:09:28.558Z,15.13
2018-09-22T10:11:57.035Z,15.43
2018-09-22T10:14:25.522Z,15.10
2018-09-22T10:16:54.026Z,21.47
2018-09-22T10:19:22.620Z,12.07
2018-09-22T10:21:51.298Z,13.40
2018-09-22T10:24:20.027Z,10.03
2018-09-22T10:26:48.625Z,10.30
2018-09-22T10:29:17.201Z,10.33
2018-09-22T10:31:45.828Z,12.90
2018-09-22T10:34:14.300Z,13.20
2018-09-22T10:36:42.947Z,12.37
2018-09-22T10:39:11.429Z,9.50
2018-09-22T10:41:39.901Z,10.80
2018-09-22T10:44:08.430Z,13.10
2018-09-22T10:46:36.881Z,12.30
2018-09-22T10:49:05.338Z,12.47
2018-09-22T10:51:33.795Z,9.70
2018-09-22T10:54:02.871Z,9.37
2018-09-22T10:56:31.392Z,12.23
2018-09-22T10:58:59.897Z,12.57
2018-09-22T11:01:29.456Z,10.83
2018-09-22T11:03:58.050Z,15.50
2018-09-22T11:06:26.547Z,16.90
2018-09-22T11:08:55.035Z,11.23
2018-09-22T11:11:23.541Z,13.77
2018-09-22T11:13:51.991Z,11.87
2018-09-22T11:16:20.507Z,11.40
2018-09-22T11:18:48.999Z,12.17
2018-09-22T11:21:17.465Z,11.47
2018-09-22T11:23:45.913Z,14.37
2018-09-22T11:26:14.405Z,11.10
2018-09-22T11:28:42.855Z,12.03
2018-09-22T11:31:11.319Z,15.00
2018-09-22T11:33:39.765Z,12.50
2018-09-22T11:36:08.245Z,12.17
2018-09-22T11:38:36.720Z,14.17
2018-09-22T11:41:05.240Z,13.70
2018-09-22T11:43:33.748Z,11.57
2018-09-22T11:46:02.236Z,13.17
2018-09-22T11:48:30.684Z,18.10
2018-09-22T11:50:59.179Z,16.47
2018-09-22T11:53:27.634Z,12.30
2018-09-22T11:55:56.144Z,14.53
2018-09-22T11:58:24.576Z,15.57
2018-09-22T12:00:53.121Z,11.67
2018-09-22T12:03:21.575Z,15.87
2018-09-22T12:05:50.088Z,16.33
2018-09-22T12:08:18.680Z,13.67
2018-09-22T12:10:47.189Z,11.80
2018-09-22T12:13:15.670Z,18.00
2018-09-22T12:15:44.125Z,15.63
2018-09-22T12:18:12.610Z,13.33
2018-09-22T12:20:41.544Z,12.30
2018-09-22T12:23:10.201Z,11.50
2018-09-22T12:25:38.665Z,11.97
2018-09-22T12:28:07.144Z,15.63
2018-09-22T12:30:35.638Z,10.73
2018-09-22T12:33:04.192Z,8.43
2018-09-22T12:35:32.814Z,10.27
2018-09-22T12:38:01.396Z,10.57
2018-09-22T12:40:32.381Z,20.40
2018-09-22T12:43:01.014Z,14.57
2018-09-22T12:45:29.746Z,11.43
2018-09-22T12:47:58.223Z,14.37
2018-09-22T12:50:26.854Z,12.47
2018-09-22T12:52:55.389Z,13.33
2018-09-22T12:55:23.949Z,12.27
2018-09-22T12:57:52.429Z,17.10
2018-09-22T13:00:20.919Z,12.90
2018-09-22T13:02:49.436Z,12.77
2018-09-22T13:05:18.262Z,15.33
2018-09-22T13:07:47.217Z,14.50
2018-09-22T13:10:15.731Z,11.97
2018-09-22T13:12:44.287Z,15.87
2018-09-22T13:15:12.810Z,19.47
2018-09-22T13:17:41.347Z,12.60
2018-09-22T13:20:09.868Z,12.37
2018-09-22T13:22:38.511Z,13.13
2018-09-22T13:25:07.114Z,14.33
2018-09-22T13:27:35.679Z,14.93
2018-09-22T13:30:04.214Z,11.30
2018-09-22T13:32:32.740Z,10.40
2018-09-22T13:35:01.243Z,9.97
2018-09-22T13:37:29.827Z,14.33
2018-09-22T13:39:58.521Z,11.00
2018-09-22T13:42:27.082Z,12.27
2018-09-22T13:44:55.658Z,12.00
2018-09-22T13:47:24.286Z,11.13
2018-09-22T13:49:52.805Z,12.00
2018-09-22T13:52:21.402Z,14.27
2018-09-22T13:54:49.856Z,12.50
2018-09-22T13:57:18.346Z,11.27
2018-09-22T13:59:46.912Z,11.50
2018-09-22T14:02:15.415Z,10.03
2018-09-22T14:04:43.879Z,12.77
2018-09-22T14:07:12.414Z,13.10
2018-09-22T14:09:40.938Z,11.87
2018-09-22T14:12:09.528Z,11.53
2018-09-22T14:14:38.116Z,10.47
2018-09-22T14:17:06.586Z,11.43
2018-09-22T14:19:35.134Z,10.60
2018-09-22T14:22:03.681Z,11.37
2018-09-22T14:24:32.180Z,16.07
2018-09-22T14:27:00.695Z,11.90
2018-09-22T14:29:29.330Z,13.50
2018-09-22T14:31:57.831Z,14.47
2018-09-22T14:34:26.449Z,12.23
2018-09-22T14:36:54.957Z,12.90
2018-09-22T14:39:23.495Z,12.30
2018-09-22T14:41:52.115Z,10.53
2018-09-22T14:44:20.635Z,8.47
2018-09-22T14:46:49.161Z,9.93
2018-09-22T14:49:17.735Z,8.50
2018-09-22T14:51:46.268Z,9.80
2018-09-22T14:54:14.846Z,7.60
2018-09-22T14:56:43.386Z,8.83
2018-09-22T14:59:11.927Z,9.43
2018-09-22T15:01:40.479Z,7.33
2018-09-22T15:04:08.955Z,6.57
2018-09-22T15:06:37.431Z,11.07
2018-09-22T15:09:07.326Z,9.77
2018-09-22T15:11:35.853Z,9.20
2018-09-22T15:14:04.374Z,10.20
2018-09-22T15:16:32.901Z,8.93
2018-09-22T15:19:01.369Z,7.73
2018-09-22T15:21:29.878Z,10.63
2018-09-22T15:23:58.377Z,11.27
2018-09-22T15:26:26.871Z,11.80
2018-09-22T15:28:55.559Z,11.17
2018-09-22T15:31:24.386Z,14.73
2018-09-22T15:33:52.988Z,9.40
2018-09-22T15:36:21.581Z,10.63
2018-09-22T15:38:50.099Z,11.37
2018-09-22T15:41:19.704Z,10.77
2018-09-22T15:43:48.128Z,8.33
2018-09-22T15:46:16.712Z,11.00
2018-09-22T15:48:45.179Z,9.87
2018-09-22T15:51:14.100Z,11.07
2018-09-22T15:53:42.765Z,5.93
2018-09-22T15:56:11.205Z,7.87
2018-09-22T15:58:39.826Z,7.37
2018-09-22T16:01:08.359Z,7.63
2018-09-22T16:03:36.904Z,10.37
2018-09-22T16:06:11.681Z,7.60
2018-09-22T16:08:40.210Z,7.17
2018-09-22T16:11:08.965Z,8.17
2018-09-22T16:13:37.540Z,9.07
2018-09-22T16:16:06.068Z,12.90
2018-09-22T16:18:34.576Z,8.57
2018-09-22T16:21:02.972Z,10.03
2018-09-22T16:23:31.634Z,11.33
2018-09-22T16:26:00.070Z,8.03
2018-09-22T16:28:28.608Z,8.33
2018-09-22T16:30:57.065Z,17.80
2018-09-22T16:33:25.506Z,11.10
2018-09-22T16:35:54.061Z,11.67
2018-09-22T16:38:22.527Z,12.70
2018-09-22T16:40:51.013Z,18.43
2018-09-22T16:43:19.526Z,13.83
2018-09-22T16:45:48.067Z,12.47
2018-09-22T16:48:16.549Z,15.30
2018-09-22T16:50:45.058Z,10.63
2018-09-22T16:53:13.553Z,15.73
2018-09-22T16:55:42.062Z,17.03
2018-09-22T16:58:10.535Z,13.07
2018-09-22T17:00:39.155Z,16.67
2018-09-22T17:03:07.867Z,13.87
2018-09-22T17:05:36.346Z,13.90
2018-09-22T17:08:04.826Z,15.80
2018-09-22T17:10:33.277Z,14.93
2018-09-22T17:13:02.359Z,17.27
2018-09-22T17:15:30.885Z,18.73
2018-09-22T17:17:59.406Z,16.83
2018-09-22T17:20:28.006Z,12.07
2018-09-22T17:22:56.790Z,16.17
2018-09-22T17:25:25.312Z,15.10
2018-09-22T17:27:53.813Z,14.53
2018-09-22T17:30:22.320Z,13.13
2018-09-22T17:32:50.794Z,13.23
2018-09-22T17:35:19.360Z,15.20
2018-09-22T17:37:47.933Z,16.90
2018-09-22T17:40:16.384Z,15.93
2018-09-22T17:42:44.940Z,15.03
2018-09-22T17:45:14.287Z,15.03
2018-09-22T17:47:42.768Z,15.30
2018-09-22T17:50:11.207Z,15.23
2018-09-22T17:52:39.628Z,15.37
2018-09-22T17:55:08.107Z,11.43
2018-09-22T17:57:36.600Z,6.37
2018-09-22T18:00:05.224Z,15.77
2018-09-22T18:02:33.644Z,9.77
2018-09-22T18:05:02.124Z,13.97
2018-09-22T18:07:30.558Z,9.20
2018-09-22T18:09:59.008Z,8.87
2018-09-22T18:12:27.449Z,9.63
2018-09-22T18:14:55.884Z,11.50
2018-09-22T18:17:24.408Z,8.30
2018-09-22T18:19:52.840Z,14.47
2018-09-22T18:22:21.291Z,14.30
2018-09-22T18:24:49.763Z,12.80
2018-09-22T18:27:18.202Z,10.03
2018-09-22T18:29:46.656Z,11.53
2018-09-22T18:32:15.103Z,10.87
2018-09-22T18:34:43.538Z,14.23
2018-09-22T18:37:12.037Z,14.53
2018-09-22T18:39:40.508Z,13.73
2018-09-22T18:42:09.004Z,13.03
2018-09-22T18:44:37.437Z,11.07
2018-09-22T18:47:05.941Z,12.20
2018-09-22T18:49:34.409Z,14.77
2018-09-22T18:52:02.972Z,9.27
2018-09-22T18:54:31.493Z,9.50
2018-09-22T18:56:59.948Z,11.50
2018-09-22T18:59:28.386Z,13.00
2018-09-22T19:01:56.864Z,14.13
2018-09-22T19:04:25.293Z,11.80
2018-09-22T19:06:53.728Z,7.40
2018-09-22T19:09:22.228Z,12.60
2018-09-22T19:11:50.680Z,11.20
2018-09-22T19:15:24.426Z,10.57
2018-09-22T19:18:55.840Z,10.97
2018-09-22T19:21:29.737Z,10.17
2018-09-22T19:24:15.835Z,14.00
2018-09-22T19:26:49.456Z,13.43
2018-09-22T19:29:27.990Z,14.93
2018-09-22T19:32:01.886Z,16.73
2018-09-22T19:34:34.666Z,19.53
2018-09-22T19:37:08.658Z,16.50
2018-09-22T19:39:41.559Z,21.07
2018-09-22T19:42:14.545Z,21.80
2018-09-22T19:45:48.245Z,18.67
2018-09-22T19:48:20.593Z,20.37
2018-09-22T19:50:55.230Z,21.07
2018-09-22T19:53:23.657Z,19.60
2018-09-22T19:55:52.123Z,21.67
2018-09-22T19:58:20.554Z,21.57
2018-09-22T20:00:49.020Z,22.10
2018-09-22T20:03:17.516Z,22.83
2018-09-22T20:05:45.993Z,19.73
2018-09-22T20:08:14.427Z,21.53
2018-09-22T20:10:42.912Z,19.90
2018-09-22T20:13:11.331Z,18.93
2018-09-22T20:15:39.815Z,18.93
2018-09-22T20:18:08.321Z,15.50
2018-09-22T20:20:36.795Z,16.13
2018-09-22T20:23:05.361Z,19.30
2018-09-22T20:25:33.916Z,16.70
2018-09-22T20:28:02.394Z,18.70
2018-09-22T20:30:30.925Z,20.10
2018-09-22T20:32:59.357Z,20.17
2018-09-22T20:35:27.843Z,20.83
2018-09-22T20:37:56.422Z,18.93
2018-09-22T20:40:24.908Z,17.60
2018-09-22T20:42:53.336Z,15.87
2018-09-22T20:45:21.786Z,15.43
2018-09-22T20:47:50.241Z,19.47
2018-09-22T20:50:18.738Z,18.57
2018-09-22T20:52:47.196Z,18.10
2018-09-22T20:55:15.649Z,17.33
2018-09-22T20:57:44.094Z,17.43
2018-09-22T21:00:12.591Z,19.07
2018-09-22T21:02:41.031Z,16.13
2018-09-22T21:05:09.488Z,19.20
2018-09-22T21:07:37.998Z,18.17
2018-09-22T21:10:06.880Z,18.93
2018-09-22T21:12:35.294Z,19.47
2018-09-22T21:15:03.754Z,19.50
2018-09-22T21:17:32.207Z,19.53
2018-09-22T21:20:00.662Z,21.97
2018-09-22T21:22:29.156Z,25.43
2018-09-22T21:24:57.640Z,24.13
2018-09-22T21:27:26.118Z,23.47
2018-09-22T21:29:54.627Z,23.40
2018-09-22T21:32:23.064Z,27.70
2018-09-22T21:34:51.536Z,28.57
2018-09-22T21:37:20.088Z,30.50
2018-09-22T21:39:48.543Z,28.93
2018-09-22T21:42:16.997Z,28.97
2018-09-22T21:44:45.459Z,27.40
2018-09-22T21:47:13.960Z,22.27
2018-09-22T21:49:42.427Z,24.07
2018-09-22T21:52:10.895Z,25.37
2018-09-22T21:54:39.416Z,24.20
2018-09-22T21:57:07.925Z,20.00
2018-09-22T21:59:36.365Z,23.60
2018-09-22T22:02:04.827Z,21.23
2018-09-22T22:04:33.272Z,18.50
2018-09-22T22:07:01.743Z,20.60
2018-09-22T22:09:30.190Z,21.50
2018-09-22T22:11:58.640Z,21.57
2018-09-22T22:14:27.084Z,20.20
2018-09-22T22:16:55.518Z,17.67
2018-09-22T22:19:24.050Z,24.13
2018-09-22T22:21:52.480Z,18.50
2018-09-22T22:24:20.946Z,18.10
2018-09-22T22:26:49.426Z,16.80
2018-09-22T22:29:17.888Z,24.17
2018-09-22T22:31:46.349Z,17.27
2018-09-22T22:34:14.791Z,15.53
2018-09-22T22:36:43.275Z,15.37
2018-09-22T22:39:11.745Z,15.47
2018-09-22T22:41:40.204Z,17.27
2018-09-22T22:44:08.681Z,17.40
2018-09-22T22:46:37.145Z,15.20
2018-09-22T22:49:05.673Z,15.63
2018-09-22T22:51:34.151Z,22.33
2018-09-22T22:54:02.640Z,16.83
2018-09-22T22:56:31.074Z,20.77
2018-09-22T22:58:59.542Z,18.23
2018-09-22T23:01:28.002Z,15.37
2018-09-22T23:03:56.446Z,18.40
2018-09-22T23:06:24.899Z,17.03
2018-09-22T23:08:53.339Z,20.53
2018-09-22T23:11:21.777Z,16.53
2018-09-22T23:13:50.259Z,20.07
2018-09-22T23:16:18.705Z,16.43
2018-09-22T23:18:47.176Z,16.70
2018-09-22T23:21:15.698Z,17.10
2018-09-22T23:23:44.175Z,16.07
2018-09-22T23:26:13.238Z,18.63
2018-09-22T23:28:41.744Z,11.93
2018-09-22T23:31:10.213Z,10.60
2018-09-22T23:33:38.691Z,12.57
2018-09-22T23:36:07.176Z,12.07
2018-09-22T23:38:35.657Z,15.70
2018-09-22T23:41:04.135Z,13.87
2018-09-22T23:43:32.612Z,15.27
2018-09-22T23:46:01.069Z,12.60
2018-09-22T23:48:29.486Z,17.17
2018-09-22T23:50:57.955Z,13.07
2018-09-22T23:53:26.403Z,12.80
2018-09-22T23:55:54.907Z,15.00
2018-09-22T23:58:23.347Z,15.13
